Time;durP1;ratioP1;P1;durP2;ratioP2;P2;SDS_P1;SDS_P2;PMS_P1;PMS_P2;Temp;Humidity;BMP_temperature;BMP_pressure;BME280_temperature;BME280_humidity;BME280_pressure;Samples;Min_cycle;Max_cycle;Signal;HPM_P1;HPM_P2
2023/10/31 00:00:50;;;;;;;11.80;4.22;;;;;;;14.92;76.30;99756.91;5029253;28;20041;-44
2023/10/31 00:03:15;;;;;;;12.75;4.30;;;;;;;14.94;76.18;99754.25;5029464;28;20045;-47
2023/10/31 00:05:41;;;;;;;8.68;3.65;;;;;;;14.99;75.98;99755.00;5028985;28;20560;-46
2023/10/31 00:08:06;;;;;;;8.73;3.97;;;;;;;14.95;76.32;99759.44;5029327;28;20044;-45
2023/10/31 00:10:31;;;;;;;8.30;3.97;;;;;;;14.84;76.64;99771.06;5029557;28;20061;-44
2023/10/31 00:12:57;;;;;;;10.68;3.70;;;;;;;14.90;76.73;99765.69;5029315;28;20041;-49
2023/10/31 00:15:24;;;;;;;8.25;4.07;;;;;;;14.91;76.69;99764.78;5029487;28;20109;-49
2023/10/31 00:17:50;;;;;;;10.73;3.85;;;;;;;14.77;77.11;99766.84;5028775;28;20045;-44
2023/10/31 00:20:15;;;;;;;11.38;4.03;;;;;;;14.64;77.79;99762.78;5030593;28;20034;-47
2023/10/31 00:22:40;;;;;;;9.00;3.50;;;;;;;14.68;77.80;99764.44;5027388;28;20500;-48
2023/10/31 00:25:06;;;;;;;8.73;3.47;;;;;;;14.82;77.00;99762.38;5029950;28;20045;-44
2023/10/31 00:27:31;;;;;;;10.05;3.90;;;;;;;14.83;77.23;99761.47;5030468;28;20041;-46
2023/10/31 00:29:56;;;;;;;11.38;4.00;;;;;;;14.70;77.95;99766.09;5029399;28;20045;-45
2023/10/31 00:32:22;;;;;;;10.55;4.03;;;;;;;14.62;78.60;99765.44;5030379;28;20116;-45
2023/10/31 00:34:47;;;;;;;8.70;4.20;;;;;;;14.83;77.74;99764.97;5029465;28;20034;-47
2023/10/31 00:37:12;;;;;;;10.57;4.07;;;;;;;14.82;77.59;99765.00;5030839;28;20091;-43
2023/10/31 00:39:38;;;;;;;9.07;3.80;;;;;;;14.96;76.64;99769.03;5030922;28;20037;-45
2023/10/31 00:42:03;;;;;;;7.65;3.10;;;;;;;14.87;76.79;99766.63;5030243;28;20061;-44
2023/10/31 00:44:28;;;;;;;5.78;2.85;;;;;;;15.02;76.43;99774.16;5030004;28;20104;-44
2023/10/31 00:46:54;;;;;;;7.22;3.05;;;;;;;15.07;76.22;99765.31;5028429;28;20129;-49
2023/10/31 00:49:19;;;;;;;5.90;2.97;;;;;;;14.95;76.47;99771.69;5028327;28;20033;-44
2023/10/31 00:51:44;;;;;;;6.05;2.90;;;;;;;14.87;76.93;99766.63;5028873;28;20077;-45
2023/10/31 00:54:10;;;;;;;8.05;3.22;;;;;;;14.97;76.49;99773.41;5033126;28;20034;-46
2023/10/31 00:56:35;;;;;;;9.82;3.10;;;;;;;14.81;77.36;99777.28;5032373;28;20037;-49
2023/10/31 00:59:01;;;;;;;7.00;3.15;;;;;;;14.70;77.74;99784.47;5032212;28;20042;-45
2023/10/31 01:01:26;;;;;;;10.05;3.45;;;;;;;14.97;76.91;99780.41;5032606;28;20060;-46
2023/10/31 01:03:52;;;;;;;9.70;3.33;;;;;;;15.05;76.33;99785.50;5031758;28;20075;-44
2023/10/31 01:06:17;;;;;;;10.65;3.55;;;;;;;14.93;76.80;99791.88;5032348;28;20042;-46
2023/10/31 01:08:42;;;;;;;4.55;2.70;;;;;;;14.82;77.00;99786.84;5032178;28;20033;-46
2023/10/31 01:11:08;;;;;;;6.88;2.58;;;;;;;14.76;77.10;99791.38;5032631;28;20036;-45
2023/10/31 01:13:33;;;;;;;7.28;2.78;;;;;;;14.71;77.19;99787.97;5032526;28;20036;-45
2023/10/31 01:15:58;;;;;;;5.00;2.40;;;;;;;14.89;76.87;99801.56;5031745;28;20029;-46
2023/10/31 01:18:23;;;;;;;4.70;2.15;;;;;;;14.87;76.79;99807.75;5032034;28;20033;-46
2023/10/31 01:20:49;;;;;;;3.25;1.80;;;;;;;14.67;77.58;99816.03;5032070;28;20033;-47
2023/10/31 01:23:14;;;;;;;4.68;1.80;;;;;;;14.95;76.62;99806.69;5032368;28;20041;-45
2023/10/31 01:25:39;;;;;;;4.82;1.90;;;;;;;14.81;76.96;99808.75;5031759;28;20037;-47
2023/10/31 01:28:05;;;;;;;4.72;1.77;;;;;;;14.77;76.98;99814.06;5029947;28;20118;-44
2023/10/31 01:30:30;;;;;;;3.80;1.42;;;;;;;14.60;77.14;99817.03;5032377;28;20041;-46
2023/10/31 01:32:55;;;;;;;3.47;1.08;;;;;;;14.60;77.32;99822.28;5031913;28;20059;-48
2023/10/31 01:35:21;;;;;;;3.63;1.10;;;;;;;14.74;76.68;99829.88;5031755;28;20112;-45
2023/10/31 01:37:46;;;;;;;3.15;0.90;;;;;;;14.62;76.75;99828.38;5031520;28;20029;-49
2023/10/31 01:40:14;;;;;;;4.45;0.90;;;;;;;14.74;76.76;99825.50;5031817;28;20036;-50
2023/10/31 01:42:40;;;;;;;3.05;0.80;;;;;;;14.62;76.71;99833.63;5031753;28;20060;-50
2023/10/31 01:45:06;;;;;;;5.80;0.80;;;;;;;14.75;76.18;99832.50;5031473;28;20447;-46
2023/10/31 01:47:32;;;;;;;3.22;0.70;;;;;;;14.76;76.09;99842.06;5031615;28;20056;-45
2023/10/31 01:49:58;;;;;;;5.68;0.70;;;;;;;14.69;76.22;99850.97;5031296;28;20508;-45
2023/10/31 01:52:23;;;;;;;2.80;0.65;;;;;;;14.60;76.37;99853.75;5031779;28;20508;-45
2023/10/31 01:54:49;;;;;;;1.75;0.55;;;;;;;14.64;76.29;99849.34;5030528;28;20037;-47
2023/10/31 01:57:15;;;;;;;2.75;0.60;;;;;;;14.50;77.13;99850.47;5031922;28;20033;-47
2023/10/31 01:59:41;;;;;;;5.15;0.60;;;;;;;14.43;76.86;99854.09;5031391;28;20029;-44
2023/10/31 02:02:07;;;;;;;3.40;0.57;;;;;;;14.30;77.68;99849.94;5031667;28;20099;-47
2023/10/31 02:04:33;;;;;;;5.18;0.70;;;;;;;14.34;77.85;99856.84;5030672;28;20033;-50
2023/10/31 02:06:58;;;;;;;5.82;0.63;;;;;;;14.38;77.49;99852.44;5031024;28;20038;-46
2023/10/31 02:09:26;;;;;;;1.73;0.40;;;;;;;14.48;77.38;99867.13;5030319;28;20037;-50
2023/10/31 02:11:51;;;;;;;1.95;0.52;;;;;;;14.38;77.39;99868.19;5029765;28;20399;-45
2023/10/31 02:14:17;;;;;;;5.20;0.60;;;;;;;14.22;77.77;99872.78;5031633;28;20137;-45
2023/10/31 02:16:42;;;;;;;6.07;1.38;;;;;;;14.20;77.88;99864.97;5032712;28;20030;-47
2023/10/31 02:19:09;;;;;;;9.18;2.30;;;;;;;14.00;78.43;99868.81;5033461;28;20033;-45
2023/10/31 02:21:39;;;;;;;9.32;2.72;;;;;;;14.31;77.92;99864.78;5032746;28;20614;-45
2023/10/31 02:24:05;;;;;;;9.65;2.63;;;;;;;14.50;77.54;99870.59;5031180;28;20033;-44
2023/10/31 02:26:34;;;;;;;14.48;3.13;;;;;;;14.31;77.64;99866.53;5031015;28;20421;-44
2023/10/31 02:29:00;;;;;;;7.60;2.40;;;;;;;14.42;77.85;99869.84;5033897;28;20037;-44
2023/10/31 02:31:26;;;;;;;10.10;2.10;;;;;;;14.22;78.43;99867.53;5034098;28;20040;-45
2023/10/31 02:33:52;;;;;;;3.50;0.90;;;;;;;14.33;78.76;99868.25;5033626;28;20025;-44
2023/10/31 02:36:18;;;;;;;6.90;0.82;;;;;;;14.35;78.14;99873.44;5033872;28;20029;-47
2023/10/31 02:38:43;;;;;;;2.38;0.60;;;;;;;14.28;79.37;99880.53;5030897;28;20041;-46
2023/10/31 02:41:08;;;;;;;2.95;0.50;;;;;;;14.18;79.52;99884.22;5030927;28;20399;-47
2023/10/31 02:43:34;;;;;;;3.30;0.52;;;;;;;14.40;78.76;99884.72;5030772;28;20037;-46
2023/10/31 02:45:59;;;;;;;4.88;0.63;;;;;;;14.58;77.69;99880.00;5029113;28;20034;-45
2023/10/31 02:48:26;;;;;;;3.22;0.68;;;;;;;14.30;78.00;99891.00;5031126;28;20033;-44
2023/10/31 02:50:51;;;;;;;2.28;0.50;;;;;;;14.49;78.01;99887.19;5030842;28;20037;-45
2023/10/31 02:53:18;;;;;;;3.90;0.50;;;;;;;14.48;77.58;99888.97;5031163;28;20383;-44
2023/10/31 02:55:43;;;;;;;3.67;0.93;;;;;;;14.64;76.61;99886.06;5030353;28;20034;-47
2023/10/31 02:58:08;;;;;;;4.70;0.57;;;;;;;14.46;77.22;99890.72;5030541;28;20040;-50
2023/10/31 03:00:34;;;;;;;2.03;0.50;;;;;;;14.44;77.00;99892.53;5030381;28;20040;-44
2023/10/31 03:02:59;;;;;;;1.48;0.40;;;;;;;14.48;76.77;99895.97;5030275;28;20037;-46
2023/10/31 03:05:25;;;;;;;6.53;0.50;;;;;;;14.50;76.88;99892.44;5030103;28;20052;-45
2023/10/31 03:07:50;;;;;;;3.00;0.45;;;;;;;14.34;76.77;99898.78;5028400;28;20526;-49
2023/10/31 03:10:16;;;;;;;3.38;0.50;;;;;;;14.10;78.05;99902.69;5030763;28;20033;-47
2023/10/31 03:12:41;;;;;;;3.08;0.50;;;;;;;14.28;77.36;99912.00;5030363;28;20043;-49
2023/10/31 03:15:07;;;;;;;3.65;0.50;;;;;;;14.38;77.07;99911.00;5030126;28;20037;-50
2023/10/31 03:17:33;;;;;;;2.75;0.47;;;;;;;14.42;76.67;99915.28;5030107;28;20033;-46
2023/10/31 03:19:58;;;;;;;4.03;0.55;;;;;;;14.24;77.48;99918.19;5030318;28;20515;-48
2023/10/31 03:22:23;;;;;;;2.08;0.50;;;;;;;14.46;76.98;99913.47;5030666;28;20430;-44
2023/10/31 03:24:49;;;;;;;1.88;0.47;;;;;;;14.55;76.43;99913.31;5029785;28;20025;-45
2023/10/31 03:27:14;;;;;;;2.55;0.60;;;;;;;14.61;75.93;99921.06;5030813;28;20030;-43
2023/10/31 03:29:39;;;;;;;6.15;0.70;;;;;;;14.50;76.37;99918.66;5031487;28;20029;-45
2023/10/31 03:32:05;;;;;;;3.22;0.40;;;;;;;14.09;77.37;99915.81;5030380;28;20207;-46
2023/10/31 03:34:30;;;;;;;1.85;0.43;;;;;;;14.31;76.86;99924.19;5031030;28;20033;-45
2023/10/31 03:36:56;;;;;;;1.25;0.50;;;;;;;14.45;76.44;99917.88;5030194;28;20056;-45
2023/10/31 03:39:21;;;;;;;3.55;0.60;;;;;;;14.31;76.06;99922.44;5030849;28;20119;-46
2023/10/31 03:41:47;;;;;;;2.17;0.73;;;;;;;14.46;75.68;99916.09;5029827;28;20037;-44
2023/10/31 03:44:12;;;;;;;2.03;0.60;;;;;;;14.51;75.60;99909.03;5031024;28;20052;-44
2023/10/31 03:46:37;;;;;;;3.75;0.60;;;;;;;14.59;74.95;99923.72;5028619;28;20029;-49
2023/10/31 03:49:03;;;;;;;3.00;0.50;;;;;;;14.45;75.59;99924.88;5029836;28;20034;-46
2023/10/31 03:51:28;;;;;;;5.00;0.80;;;;;;;14.27;76.03;99927.78;5029765;28;20519;-45
2023/10/31 03:53:53;;;;;;;2.92;0.60;;;;;;;14.46;75.48;99934.44;5029194;28;20053;-49
2023/10/31 03:56:19;;;;;;;6.22;0.70;;;;;;;14.61;74.91;99921.06;5029605;28;20044;-46
2023/10/31 03:58:44;;;;;;;2.45;0.60;;;;;;;14.66;74.65;99924.47;5029176;28;20550;-46
2023/10/31 04:01:10;;;;;;;4.32;0.77;;;;;;;14.67;74.84;99926.22;5029535;28;20037;-45
2023/10/31 04:03:35;;;;;;;2.15;0.70;;;;;;;14.68;74.50;99924.47;5029400;28;20033;-47
2023/10/31 04:06:00;;;;;;;3.05;0.88;;;;;;;14.56;74.92;99925.53;5028964;28;20141;-47
2023/10/31 04:08:26;;;;;;;2.85;0.95;;;;;;;14.47;74.83;99928.31;5029566;28;20080;-46
2023/10/31 04:10:51;;;;;;;2.25;0.90;;;;;;;14.37;75.47;99930.25;5028777;28;20555;-49
2023/10/31 04:13:16;;;;;;;5.10;0.90;;;;;;;14.35;75.65;99936.38;5029524;28;20030;-44
2023/10/31 04:15:41;;;;;;;3.25;1.10;;;;;;;14.58;75.14;99945.59;5028843;28;20061;-46
2023/10/31 04:18:07;;;;;;;2.80;1.00;;;;;;;14.52;75.47;99956.19;5028582;28;20095;-46
2023/10/31 04:20:32;;;;;;;5.30;1.38;;;;;;;14.61;75.07;99955.19;5029712;28;20112;-48
2023/10/31 04:22:57;;;;;;;5.35;1.40;;;;;;;14.66;74.64;99958.56;5029289;28;20057;-46
2023/10/31 04:25:23;;;;;;;3.47;1.75;;;;;;;14.67;74.68;99954.19;5027817;28;20045;-44
2023/10/31 04:27:48;;;;;;;4.70;1.88;;;;;;;14.61;74.72;99957.81;5031143;28;20053;-46
2023/10/31 04:30:14;;;;;;;3.60;1.98;;;;;;;14.62;74.69;99964.78;5033262;28;20037;-45
2023/10/31 04:32:40;;;;;;;3.10;1.70;;;;;;;14.70;74.29;99968.13;5033322;28;20029;-47
2023/10/31 04:35:05;;;;;;;5.10;1.80;;;;;;;14.66;74.24;99957.72;5033549;28;20061;-44
2023/10/31 04:37:31;;;;;;;4.88;1.90;;;;;;;14.52;74.24;99963.19;5033495;28;20510;-41
2023/10/31 04:39:56;;;;;;;7.85;2.10;;;;;;;14.31;75.71;99958.28;5033102;28;20088;-48
2023/10/31 04:42:22;;;;;;;4.13;1.67;;;;;;;14.51;74.66;99964.97;5033507;28;20025;-44
2023/10/31 04:44:47;;;;;;;4.88;1.90;;;;;;;14.41;75.11;99970.38;5032282;28;20040;-48
2023/10/31 04:47:13;;;;;;;5.25;2.05;;;;;;;14.37;75.41;99974.81;5033580;28;20033;-45
2023/10/31 04:49:38;;;;;;;4.75;2.50;;;;;;;14.49;74.89;99974.63;5033536;28;20037;-51
2023/10/31 04:52:04;;;;;;;5.50;2.38;;;;;;;14.53;74.67;99981.53;5031554;28;20039;-44
2023/10/31 04:54:29;;;;;;;4.47;2.20;;;;;;;14.53;74.79;99988.53;5033142;28;20029;-46
2023/10/31 04:56:55;;;;;;;7.97;2.50;;;;;;;14.29;76.02;99989.75;5032661;28;20124;-47
2023/10/31 04:59:20;;;;;;;5.32;2.20;;;;;;;14.46;75.42;99993.00;5034703;28;20164;-45
2023/10/31 05:01:50;;;;;;;4.90;2.38;;;;;;;14.54;75.01;100001.63;5036435;28;20022;-46
2023/10/31 05:04:16;;;;;;;5.40;2.40;;;;;;;14.61;74.73;99998.03;5033262;28;20120;-45
2023/10/31 05:06:42;;;;;;;5.10;2.30;;;;;;;14.40;75.26;100007.97;5032629;28;20033;-44
2023/10/31 05:09:07;;;;;;;5.55;2.40;;;;;;;14.43;75.14;100007.94;5033148;28;20495;-47
2023/10/31 05:11:32;;;;;;;4.55;2.20;;;;;;;14.49;75.45;100015.72;5031310;28;20029;-46
2023/10/31 05:13:58;;;;;;;8.35;2.33;;;;;;;14.56;75.07;100007.72;5032032;28;20116;-46
2023/10/31 05:16:23;;;;;;;5.32;2.10;;;;;;;14.57;75.05;100011.22;5032475;28;20402;-45
2023/10/31 05:18:49;;;;;;;5.43;1.73;;;;;;;14.50;74.98;100015.69;5032354;28;20042;-44
2023/10/31 05:21:19;;;;;;;4.72;1.60;;;;;;;14.49;75.11;100021.81;5032800;28;20021;-46
2023/10/31 05:23:45;;;;;;;3.47;1.40;;;;;;;14.54;75.09;100020.00;5032233;28;20026;-44
2023/10/31 05:26:10;;;;;;;5.70;1.20;;;;;;;14.52;75.09;100023.50;5031690;28;20500;-45
2023/10/31 05:28:35;;;;;;;5.18;1.17;;;;;;;14.43;75.24;100028.91;5032239;28;20060;-45
2023/10/31 05:31:00;;;;;;;4.82;1.00;;;;;;;14.55;74.69;100019.09;5032247;28;20107;-46
2023/10/31 05:33:26;;;;;;;6.65;1.00;;;;;;;14.58;74.59;100020.78;5032317;28;20109;-47
2023/10/31 05:35:51;;;;;;;5.32;1.08;;;;;;;14.53;74.61;100031.38;5031797;28;20116;-44
2023/10/31 05:38:16;;;;;;;4.40;1.00;;;;;;;14.60;74.52;100021.66;5031998;28;20596;-46
2023/10/31 05:40:42;;;;;;;2.42;0.90;;;;;;;14.47;74.61;100025.34;5031737;28;20056;-45
2023/10/31 05:43:07;;;;;;;3.90;1.00;;;;;;;14.27;75.62;100032.66;5031925;28;20144;-47
2023/10/31 05:45:33;;;;;;;2.97;0.70;;;;;;;14.50;74.80;100038.44;5032187;28;20167;-45
2023/10/31 05:47:59;;;;;;;3.95;0.73;;;;;;;14.43;74.71;100032.41;5031408;28;20033;-46
2023/10/31 05:50:24;;;;;;;2.53;0.60;;;;;;;14.43;74.49;100035.03;5032500;28;20550;-44
2023/10/31 05:52:50;;;;;;;1.38;0.80;;;;;;;14.43;74.51;100042.91;5031651;28;20491;-44
2023/10/31 05:55:15;;;;;;;3.65;0.80;;;;;;;14.33;75.09;100040.41;5031714;28;20414;-48
2023/10/31 05:57:41;;;;;;;3.35;0.75;;;;;;;14.37;74.83;100043.00;5031567;28;20033;-43
2023/10/31 06:00:08;;;;;;;5.05;1.20;;;;;;;14.22;75.49;100041.44;5031408;28;20482;-44
2023/10/31 06:02:33;;;;;;;3.80;0.70;;;;;;;14.31;75.36;100045.69;5031741;28;20037;-46
2023/10/31 06:04:58;;;;;;;4.82;0.75;;;;;;;14.35;75.02;100052.59;5031053;28;20230;-44
2023/10/31 06:07:24;;;;;;;6.18;0.70;;;;;;;14.23;75.52;100048.41;5030416;28;20061;-45
2023/10/31 06:09:49;;;;;;;3.28;0.70;;;;;;;14.29;75.01;100047.44;5031175;28;20137;-44
2023/10/31 06:12:14;;;;;;;2.45;0.60;;;;;;;14.37;74.13;100049.97;5031225;28;20084;-46
2023/10/31 06:14:40;;;;;;;3.67;0.80;;;;;;;14.30;74.15;100054.44;5031498;28;20424;-45
2023/10/31 06:17:05;;;;;;;1.85;0.73;;;;;;;14.12;74.96;100054.69;5030632;28;20396;-44
2023/10/31 06:19:34;;;;;;;1.58;0.65;;;;;;;14.19;74.45;100061.59;5031567;28;20033;-46
2023/10/31 06:21:59;;;;;;;3.13;0.70;;;;;;;14.16;74.16;100065.09;5031107;28;20060;-43
2023/10/31 06:24:25;;;;;;;1.58;0.70;;;;;;;13.92;75.67;100067.19;5032139;28;20487;-44
2023/10/31 06:26:50;;;;;;;4.35;0.70;;;;;;;14.04;75.10;100067.91;5031065;28;20037;-48
2023/10/31 06:29:15;;;;;;;3.70;0.80;;;;;;;14.07;74.69;100067.88;5031102;28;20037;-44
2023/10/31 06:31:41;;;;;;;2.30;0.70;;;;;;;14.13;74.47;100078.28;5031520;28;20022;-44
2023/10/31 06:34:06;;;;;;;2.78;1.00;;;;;;;14.03;74.75;100081.00;5031292;28;20025;-44
2023/10/31 06:36:31;;;;;;;3.15;0.90;;;;;;;14.08;74.58;100076.59;5031470;28;20021;-44
2023/10/31 06:38:57;;;;;;;3.08;1.02;;;;;;;13.93;75.89;100079.41;5030814;28;20445;-48
2023/10/31 06:41:22;;;;;;;4.65;1.10;;;;;;;13.94;76.13;100083.78;5031800;28;20038;-43
2023/10/31 06:43:47;;;;;;;4.97;0.85;;;;;;;13.96;76.59;100097.72;5031295;28;20037;-44
2023/10/31 06:46:15;;;;;;;3.22;1.00;;;;;;;14.14;76.12;100093.13;5031952;28;20037;-43
2023/10/31 06:48:40;;;;;;;2.00;0.90;;;;;;;14.20;75.71;100093.03;5030876;28;20353;-46
2023/10/31 06:51:05;;;;;;;5.00;1.10;;;;;;;14.14;76.05;100100.13;5029569;28;20033;-49
2023/10/31 06:53:31;;;;;;;3.05;1.00;;;;;;;14.30;75.39;100109.50;5029025;28;20036;-45
2023/10/31 06:55:56;;;;;;;5.00;1.35;;;;;;;14.22;76.02;100104.34;5030316;28;20029;-46
2023/10/31 06:58:21;;;;;;;3.80;1.23;;;;;;;14.38;76.30;100105.06;5031152;28;20036;-43
2023/10/31 07:00:47;;;;;;;3.97;1.10;;;;;;;14.54;75.94;100103.06;5030009;28;20081;-44
2023/10/31 07:03:15;;;;;;;3.92;1.27;;;;;;;14.59;76.13;100103.84;5030733;28;20041;-49
2023/10/31 07:05:40;;;;;;;4.55;1.20;;;;;;;14.52;76.00;100116.19;5030057;28;20029;-44
2023/10/31 07:08:06;;;;;;;2.72;1.30;;;;;;;14.55;76.63;100117.91;5029803;28;20545;-43
2023/10/31 07:10:31;;;;;;;4.15;1.30;;;;;;;14.67;76.09;100116.84;5030425;28;20060;-47
2023/10/31 07:12:58;;;;;;;3.53;1.40;;;;;;;14.69;75.64;100107.22;5029908;28;20113;-48
2023/10/31 07:15:24;;;;;;;5.75;1.48;;;;;;;14.69;75.37;100110.72;5030153;28;20029;-44
2023/10/31 07:17:49;;;;;;;3.72;1.40;;;;;;;14.72;75.27;100115.03;5029532;28;20508;-44
2023/10/31 07:20:15;;;;;;;5.40;1.58;;;;;;;14.76;74.96;100114.94;5030334;28;20029;-46
2023/10/31 07:22:40;;;;;;;6.07;1.77;;;;;;;14.68;74.99;100132.59;5029942;28;20068;-44
2023/10/31 07:25:06;;;;;;;3.55;1.60;;;;;;;14.59;75.71;100133.56;5029657;28;20533;-44
2023/10/31 07:27:32;;;;;;;4.28;1.60;;;;;;;14.70;74.83;100129.94;5030302;28;20045;-44
2023/10/31 07:29:57;;;;;;;6.93;2.17;;;;;;;14.49;75.22;100142.47;5029489;28;20113;-44
2023/10/31 07:32:22;;;;;;;3.53;1.80;;;;;;;14.59;74.86;100146.69;5030049;28;20029;-44
2023/10/31 07:34:48;;;;;;;5.88;2.08;;;;;;;14.61;74.46;100149.28;5029851;28;20037;-45
2023/10/31 07:37:13;;;;;;;4.47;1.90;;;;;;;14.55;74.76;100157.25;5036081;28;20033;-48
2023/10/31 07:39:38;;;;;;;6.45;1.90;;;;;;;14.58;74.52;100151.94;5037265;28;20403;-43
2023/10/31 07:42:04;;;;;;;5.60;1.90;;;;;;;14.59;74.71;100166.81;5035229;28;20044;-45
2023/10/31 07:44:30;;;;;;;9.57;2.15;;;;;;;14.37;74.94;100161.00;5034509;28;20439;-46
2023/10/31 07:46:55;;;;;;;5.15;2.30;;;;;;;14.48;75.76;100166.97;5034330;28;20119;-45
2023/10/31 07:49:21;;;;;;;6.35;2.38;;;;;;;14.48;75.50;100168.72;5033683;28;20079;-46
2023/10/31 07:51:47;;;;;;;11.23;2.88;;;;;;;14.50;75.59;100159.94;5031035;28;20079;-43
2023/10/31 07:54:14;;;;;;;5.72;2.72;;;;;;;14.62;75.18;100151.03;5029700;28;20052;-46
2023/10/31 07:56:40;;;;;;;10.32;2.95;;;;;;;14.55;75.42;100154.63;5028252;28;20029;-44
2023/10/31 07:59:06;;;;;;;8.40;2.70;;;;;;;14.58;75.25;100155.44;5045057;28;20037;-48
2023/10/31 08:01:31;;;;;;;7.60;2.60;;;;;;;14.67;74.56;100157.06;5049323;28;20040;-46
2023/10/31 08:03:56;;;;;;;7.22;2.80;;;;;;;14.70;74.61;100153.56;5052383;28;20048;-45
2023/10/31 08:06:22;;;;;;;8.50;2.80;;;;;;;14.74;74.90;100163.97;5052804;28;20522;-47
2023/10/31 08:08:47;;;;;;;7.10;2.97;;;;;;;14.82;75.47;100159.47;5052471;28;20041;-46
2023/10/31 08:11:12;;;;;;;8.85;3.25;;;;;;;14.85;76.15;100161.19;5039405;28;20029;-46
2023/10/31 08:13:38;;;;;;;8.32;2.88;;;;;;;14.92;76.47;100168.06;5032403;28;20116;-44
2023/10/31 08:16:05;;;;;;;11.65;3.10;;;;;;;15.06;76.01;100166.09;5032092;28;20511;-46
2023/10/31 08:18:31;;;;;;;9.13;3.30;;;;;;;15.06;75.98;100165.25;5032883;28;20033;-46
2023/10/31 08:20:56;;;;;;;11.73;3.47;;;;;;;15.02;76.26;100167.91;5032734;28;20041;-46
2023/10/31 08:23:22;;;;;;;10.80;3.60;;;;;;;15.19;76.23;100170.25;5033531;28;20029;-44
2023/10/31 08:25:47;;;;;;;9.02;3.33;;;;;;;15.27;76.35;100172.75;5030455;28;20103;-45
2023/10/31 08:28:12;;;;;;;7.40;3.70;;;;;;;15.48;76.73;100167.13;5032639;28;20132;-46
2023/10/31 08:30:38;;;;;;;8.88;3.90;;;;;;;15.34;76.64;100175.25;5033290;28;20091;-48
2023/10/31 08:33:04;;;;;;;11.50;3.97;;;;;;;15.38;76.61;100182.16;5032493;28;20038;-46
2023/10/31 08:35:29;;;;;;;14.70;4.15;;;;;;;15.50;76.37;100180.22;5033134;28;20725;-44
2023/10/31 08:37:55;;;;;;;10.52;4.07;;;;;;;15.52;75.44;100175.81;5031087;28;20095;-49
2023/10/31 08:40:20;;;;;;;10.70;3.95;;;;;;;15.67;75.15;100179.09;5033099;28;20037;-48
2023/10/31 08:42:45;;;;;;;8.68;3.97;;;;;;;15.76;74.73;100189.41;5031352;28;20440;-44
2023/10/31 08:45:11;;;;;;;9.52;4.32;;;;;;;15.57;74.82;100188.00;5033053;28;20040;-46
2023/10/31 08:47:36;;;;;;;8.57;3.60;;;;;;;15.63;74.70;100195.78;5033108;28;20067;-43
2023/10/31 08:50:02;;;;;;;8.05;3.88;;;;;;;15.69;74.38;100189.53;5032523;28;20025;-46
2023/10/31 08:52:27;;;;;;;12.23;4.05;;;;;;;15.49;74.94;100189.84;5032801;28;20057;-43
2023/10/31 08:54:52;;;;;;;8.10;4.07;;;;;;;15.63;74.99;100194.91;5032609;28;20033;-45
2023/10/31 08:57:18;;;;;;;9.55;4.07;;;;;;;15.56;75.07;100199.41;5033085;28;20034;-45
2023/10/31 08:59:43;;;;;;;9.98;4.30;;;;;;;15.57;75.39;100203.78;5032493;28;20022;-48
2023/10/31 09:02:09;;;;;;;11.73;4.30;;;;;;;15.70;75.04;100200.03;5032865;28;20040;-45
2023/10/31 09:04:35;;;;;;;12.50;4.32;;;;;;;15.65;75.56;100204.50;5033411;28;20025;-44
2023/10/31 09:07:00;;;;;;;12.85;4.50;;;;;;;15.89;75.24;100211.06;5031903;28;20098;-46
2023/10/31 09:09:25;;;;;;;11.95;4.45;;;;;;;15.70;75.78;100217.56;5032991;28;20116;-49
2023/10/31 09:11:51;;;;;;;13.13;4.28;;;;;;;15.95;75.56;100217.97;5032280;28;20040;-45
2023/10/31 09:14:16;;;;;;;15.57;4.78;;;;;;;16.01;75.44;100225.75;5030656;28;20036;-45
2023/10/31 09:16:41;;;;;;;9.70;4.50;;;;;;;15.95;76.07;100226.72;5032045;28;20107;-43
2023/10/31 09:19:07;;;;;;;11.88;4.50;;;;;;;15.92;75.43;100229.41;5033169;28;20036;-44
2023/10/31 09:21:33;;;;;;;9.85;3.83;;;;;;;15.98;75.00;100231.06;5032709;28;20052;-45
2023/10/31 09:23:58;;;;;;;11.88;3.65;;;;;;;15.89;74.92;100229.47;5031566;28;20056;-46
2023/10/31 09:26:23;;;;;;;9.40;3.70;;;;;;;16.12;74.54;100237.78;5032214;28;20748;-46
2023/10/31 09:28:51;;;;;;;10.13;3.67;;;;;;;16.08;74.82;100240.53;5032425;28;20038;-48
2023/10/31 09:31:17;;;;;;;9.57;3.30;;;;;;;16.08;74.56;100225.59;5033581;28;20045;-47
2023/10/31 09:33:43;;;;;;;9.00;3.38;;;;;;;16.19;74.51;100236.78;5032176;28;20033;-47
2023/10/31 09:36:09;;;;;;;10.57;2.90;;;;;;;16.10;74.82;100238.72;5032832;28;20043;-45
2023/10/31 09:38:34;;;;;;;6.13;2.60;;;;;;;16.30;74.60;100240.94;5033187;28;20116;-45
2023/10/31 09:40:59;;;;;;;9.32;2.88;;;;;;;16.18;74.97;100244.69;5032304;28;20049;-48
2023/10/31 09:43:25;;;;;;;7.47;2.70;;;;;;;16.30;74.37;100241.81;5033372;28;20518;-44
2023/10/31 09:45:51;;;;;;;8.95;2.80;;;;;;;16.38;74.44;100242.53;5031088;28;20152;-44
2023/10/31 09:48:19;;;;;;;9.18;2.88;;;;;;;16.48;74.13;100240.56;5032442;28;20095;-46
2023/10/31 09:50:45;;;;;;;7.90;2.55;;;;;;;16.37;73.92;100247.81;5030054;28;20032;-44
2023/10/31 09:53:11;;;;;;;6.90;2.42;;;;;;;16.58;73.84;100245.63;5032051;28;20120;-46
2023/10/31 09:55:37;;;;;;;6.63;2.60;;;;;;;16.49;73.94;100245.81;5030559;28;20121;-48
2023/10/31 09:58:02;;;;;;;9.43;2.50;;;;;;;16.58;73.99;100245.63;5031173;28;20514;-47
2023/10/31 10:00:28;;;;;;;7.35;2.53;;;;;;;16.76;73.41;100259.34;5031593;28;20033;-48
2023/10/31 10:02:54;;;;;;;6.22;2.30;;;;;;;16.82;73.05;100259.19;5031095;28;20571;-47
2023/10/31 10:05:22;;;;;;;9.77;2.50;;;;;;;16.85;73.03;100265.25;5031243;28;20041;-46
2023/10/31 10:07:48;;;;;;;7.38;2.13;;;;;;;16.97;73.05;100267.63;5030788;28;20033;-47
2023/10/31 10:10:13;;;;;;;9.50;2.22;;;;;;;17.08;72.96;100271.78;5031614;28;20381;-45
2023/10/31 10:12:44;;;;;;;9.50;2.03;;;;;;;17.19;72.76;100277.69;5030095;28;20523;-45
2023/10/31 10:15:11;;;;;;;6.53;2.10;;;;;;;17.28;72.27;100274.81;5029322;28;20399;-46
2023/10/31 10:17:39;;;;;;;10.57;2.10;;;;;;;17.18;71.82;100276.81;5031103;28;20044;-44
2023/10/31 10:20:06;;;;;;;5.80;1.95;;;;;;;17.20;71.73;100279.41;5030472;28;20037;-43
2023/10/31 10:22:31;;;;;;;5.43;2.00;;;;;;;17.30;71.49;100281.78;5031917;28;20048;-43
2023/10/31 10:24:57;;;;;;;6.93;2.33;;;;;;;17.26;71.18;100288.00;5032864;28;20026;-44
2023/10/31 10:27:22;;;;;;;10.00;2.80;;;;;;;17.24;71.19;100288.97;5034620;28;20041;-50
2023/10/31 10:29:48;;;;;;;9.02;2.92;;;;;;;17.22;70.76;100289.00;5031311;28;20041;-47
2023/10/31 10:32:13;;;;;;;14.07;3.03;;;;;;;17.24;70.90;100288.97;5031435;28;20029;-50
2023/10/31 10:34:42;;;;;;;12.55;3.60;;;;;;;17.19;71.22;100291.72;5031268;28;20037;-45
2023/10/31 10:37:08;;;;;;;9.98;3.60;;;;;;;16.95;71.86;100287.00;5030843;28;20091;-45
2023/10/31 10:39:35;;;;;;;11.75;3.90;;;;;;;17.13;71.06;100286.59;5030996;28;20029;-44
2023/10/31 10:42:01;;;;;;;12.23;3.15;;;;;;;17.25;71.10;100290.72;5030232;28;20152;-46
2023/10/31 10:44:34;;;;;;;9.80;3.25;;;;;;;17.32;70.72;100292.31;5031069;28;20032;-46
2023/10/31 10:47:05;;;;;;;10.75;3.47;;;;;;;17.34;70.63;100293.97;5030016;28;20037;-44
2023/10/31 10:49:35;;;;;;;11.73;3.40;;;;;;;17.31;70.64;100298.47;5030905;28;20500;-44
2023/10/31 10:52:25;;;;;;;11.15;3.50;;;;;;;17.43;70.55;100296.41;5030546;28;20033;-44
2023/10/31 10:54:58;;;;;;;12.30;2.90;;;;;;;16.91;70.47;100304.59;5030250;28;20057;-44
2023/10/31 10:57:36;;;;;;;8.93;3.17;;;;;;;17.11;70.93;100309.44;5030903;28;20083;-48
2023/10/31 11:00:04;;;;;;;9.10;2.97;;;;;;;17.50;70.99;100317.34;5030157;28;20033;-45
2023/10/31 11:02:31;;;;;;;10.07;2.90;;;;;;;17.63;71.26;100314.38;5030598;28;20095;-43
2023/10/31 11:04:58;;;;;;;9.25;2.65;;;;;;;17.97;71.97;100308.28;5029901;28;20508;-48
2023/10/31 11:07:26;;;;;;;9.18;2.88;;;;;;;18.28;71.57;100303.94;5030365;28;20136;-46
2023/10/31 11:09:51;;;;;;;11.80;2.78;;;;;;;18.33;71.31;100304.69;5030039;28;20430;-48
2023/10/31 11:12:19;;;;;;;8.55;3.00;;;;;;;18.36;70.51;100306.38;5030258;28;20029;-44
2023/10/31 11:14:46;;;;;;;10.82;3.60;;;;;;;18.23;70.52;100313.75;5029686;28;20053;-46
2023/10/31 11:17:27;;;;;;;8.77;3.78;;;;;;;18.81;70.24;100309.50;5029743;28;20539;-47
2023/10/31 11:19:55;;;;;;;11.88;3.70;;;;;;;19.04;69.82;100309.69;5029971;28;20037;-46